sensor_id;sensor_type;location;lat;lon;timestamp;temperature;humidity
18446;DHT22;9352;50.888;4.466;2024-03-23T00:54:12;8.60;99.90
18446;DHT22;9352;50.888;4.466;2024-03-23T00:56:38;8.70;99.90
18446;DHT22;9352;50.888;4.466;2024-03-23T00:59:05;8.60;99.90
18446;DHT22;9352;50.888;4.466;2024-03-23T01:01:31;8.60;99.90
18446;DHT22;9352;50.888;4.466;2024-03-23T01:03:58;8.60;99.90
18446;DHT22;9352;50.888;4.466;2024-03-23T01:06:24;8.60;99.90
18446;DHT22;9352;50.888;4.466;2024-03-23T01:08:51;8.60;99.90
18446;DHT22;9352;50.888;4.466;2024-03-23T01:11:19;8.60;99.90
18446;DHT22;9352;50.888;4.466;2024-03-23T01:13:46;8.60;99.90
18446;DHT22;9352;50.888;4.466;2024-03-23T01:16:12;8.60;99.90
18446;DHT22;9352;50.888;4.466;2024-03-23T01:18:39;8.60;99.90
18446;DHT22;9352;50.888;4.466;2024-03-23T01:21:04;8.60;99.90
18446;DHT22;9352;50.888;4.466;2024-03-23T01:23:31;8.50;99.90
18446;DHT22;9352;50.888;4.466;2024-03-23T01:25:57;8.50;99.90
18446;DHT22;9352;50.888;4.466;2024-03-23T01:28:25;8.50;99.90
18446;DHT22;9352;50.888;4.466;2024-03-23T01:30:51;8.60;99.90
18446;DHT22;9352;50.888;4.466;2024-03-23T01:33:18;8.60;99.90
18446;DHT22;9352;50.888;4.466;2024-03-23T01:35:44;8.60;99.90
18446;DHT22;9352;50.888;4.466;2024-03-23T01:38:11;8.60;99.90
18446;DHT22;9352;50.888;4.466;2024-03-23T01:40:37;8.50;99.90
18446;DHT22;9352;50.888;4.466;2024-03-23T01:43:05;8.40;99.90
18446;DHT22;9352;50.888;4.466;2024-03-23T01:45:34;8.30;99.90
18446;DHT22;9352;50.888;4.466;2024-03-23T01:48:02;8.20;99.90
18446;DHT22;9352;50.888;4.466;2024-03-23T01:50:28;8.20;99.90
18446;DHT22;9352;50.888;4.466;2024-03-23T01:52:58;8.20;99.90
18446;DHT22;9352;50.888;4.466;2024-03-23T01:55:25;8.30;99.90
18446;DHT22;9352;50.888;4.466;2024-03-23T01:57:53;8.20;99.90
18446;DHT22;9352;50.888;4.466;2024-03-23T02:00:19;8.20;99.90
18446;DHT22;9352;50.888;4.466;2024-03-23T02:02:47;8.10;99.90
18446;DHT22;9352;50.888;4.466;2024-03-23T02:05:13;8.00;99.90
18446;DHT22;9352;50.888;4.466;2024-03-23T02:07:41;8.00;99.90
18446;DHT22;9352;50.888;4.466;2024-03-23T02:10:09;8.00;99.90
18446;DHT22;9352;50.888;4.466;2024-03-23T02:12:37;8.00;99.90
18446;DHT22;9352;50.888;4.466;2024-03-23T02:15:04;8.10;99.90
18446;DHT22;9352;50.888;4.466;2024-03-23T02:17:33;8.10;99.90
18446;DHT22;9352;50.888;4.466;2024-03-23T02:20:01;8.10;99.90
18446;DHT22;9352;50.888;4.466;2024-03-23T02:22:35;8.10;99.90
18446;DHT22;9352;50.888;4.466;2024-03-23T02:25:03;8.10;99.90
18446;DHT22;9352;50.888;4.466;2024-03-23T02:27:30;8.10;99.90
18446;DHT22;9352;50.888;4.466;2024-03-23T02:29:56;8.10;99.90
18446;DHT22;9352;50.888;4.466;2024-03-23T02:32:23;8.10;99.90
18446;DHT22;9352;50.888;4.466;2024-03-23T02:34:49;8.10;99.90
18446;DHT22;9352;50.888;4.466;2024-03-23T02:37:16;8.20;99.90
18446;DHT22;9352;50.888;4.466;2024-03-23T02:39:42;8.20;99.90
18446;DHT22;9352;50.888;4.466;2024-03-23T02:42:10;8.20;99.90
18446;DHT22;9352;50.888;4.466;2024-03-23T02:44:36;8.20;99.90
18446;DHT22;9352;50.888;4.466;2024-03-23T02:47:03;8.20;99.90
18446;DHT22;9352;50.888;4.466;2024-03-23T02:49:29;8.20;99.90
18446;DHT22;9352;50.888;4.466;2024-03-23T02:51:56;8.20;99.90
18446;DHT22;9352;50.888;4.466;2024-03-23T02:54:22;8.20;99.90
18446;DHT22;9352;50.888;4.466;2024-03-23T02:56:48;8.20;99.90
18446;DHT22;9352;50.888;4.466;2024-03-23T02:59:16;8.20;99.90
18446;DHT22;9352;50.888;4.466;2024-03-23T03:01:43;8.20;99.90
18446;DHT22;9352;50.888;4.466;2024-03-23T03:04:08;8.20;99.90
18446;DHT22;9352;50.888;4.466;2024-03-23T03:06:35;8.20;99.90
18446;DHT22;9352;50.888;4.466;2024-03-23T03:09:01;8.20;99.90
18446;DHT22;9352;50.888;4.466;2024-03-23T03:11:28;8.20;99.90
18446;DHT22;9352;50.888;4.466;2024-03-23T03:13:54;8.20;99.90
18446;DHT22;9352;50.888;4.466;2024-03-23T03:16:22;8.20;99.90
18446;DHT22;9352;50.888;4.466;2024-03-23T03:18:48;8.20;99.90
18446;DHT22;9352;50.888;4.466;2024-03-23T03:21:15;8.20;99.90
18446;DHT22;9352;50.888;4.466;2024-03-23T03:23:42;8.20;99.90
18446;DHT22;9352;50.888;4.466;2024-03-23T03:26:10;8.20;99.90
18446;DHT22;9352;50.888;4.466;2024-03-23T03:28:35;8.20;99.90
18446;DHT22;9352;50.888;4.466;2024-03-23T03:31:03;8.20;99.90
18446;DHT22;9352;50.888;4.466;2024-03-23T03:33:30;8.10;99.90
18446;DHT22;9352;50.888;4.466;2024-03-23T03:35:57;8.10;99.90
18446;DHT22;9352;50.888;4.466;2024-03-23T03:38:23;8.00;99.90
18446;DHT22;9352;50.888;4.466;2024-03-23T03:40:50;8.00;99.90
18446;DHT22;9352;50.888;4.466;2024-03-23T03:43:16;8.00;99.90
18446;DHT22;9352;50.888;4.466;2024-03-23T03:45:43;8.00;99.90
18446;DHT22;9352;50.888;4.466;2024-03-23T03:48:16;8.00;99.90
18446;DHT22;9352;50.888;4.466;2024-03-23T03:50:44;7.90;99.90
18446;DHT22;9352;50.888;4.466;2024-03-23T03:53:11;7.90;99.90
18446;DHT22;9352;50.888;4.466;2024-03-23T03:55:38;7.80;99.90
18446;DHT22;9352;50.888;4.466;2024-03-23T03:58:04;7.80;99.90
18446;DHT22;9352;50.888;4.466;2024-03-23T04:00:31;7.70;99.90
18446;DHT22;9352;50.888;4.466;2024-03-23T04:02:57;7.60;99.90
18446;DHT22;9352;50.888;4.466;2024-03-23T04:05:24;7.60;99.90
18446;DHT22;9352;50.888;4.466;2024-03-23T04:07:51;7.70;99.90
18446;DHT22;9352;50.888;4.466;2024-03-23T04:10:18;7.60;99.90
18446;DHT22;9352;50.888;4.466;2024-03-23T04:12:44;7.70;99.90
18446;DHT22;9352;50.888;4.466;2024-03-23T04:15:11;7.80;99.90
18446;DHT22;9352;50.888;4.466;2024-03-23T04:17:37;7.80;99.90
18446;DHT22;9352;50.888;4.466;2024-03-23T04:20:05;7.80;99.90
18446;DHT22;9352;50.888;4.466;2024-03-23T04:22:36;7.80;99.90
18446;DHT22;9352;50.888;4.466;2024-03-23T04:25:05;7.80;99.90
18446;DHT22;9352;50.888;4.466;2024-03-23T04:27:32;7.80;99.90
18446;DHT22;9352;50.888;4.466;2024-03-23T04:29:59;7.80;99.90
18446;DHT22;9352;50.888;4.466;2024-03-23T04:32:26;7.80;99.90
18446;DHT22;9352;50.888;4.466;2024-03-23T04:34:54;7.90;99.90
18446;DHT22;9352;50.888;4.466;2024-03-23T04:37:20;7.90;99.90
18446;DHT22;9352;50.888;4.466;2024-03-23T04:39:47;7.90;99.90
18446;DHT22;9352;50.888;4.466;2024-03-23T04:42:16;7.90;99.90
18446;DHT22;9352;50.888;4.466;2024-03-23T04:44:43;7.90;99.90
18446;DHT22;9352;50.888;4.466;2024-03-23T04:47:10;7.90;99.90
18446;DHT22;9352;50.888;4.466;2024-03-23T04:49:37;8.00;99.90
18446;DHT22;9352;50.888;4.466;2024-03-23T04:52:05;7.90;99.90
18446;DHT22;9352;50.888;4.466;2024-03-23T04:54:32;8.00;99.90
18446;DHT22;9352;50.888;4.466;2024-03-23T04:56:58;7.90;99.90
18446;DHT22;9352;50.888;4.466;2024-03-23T04:59:26;7.90;99.90
18446;DHT22;9352;50.888;4.466;2024-03-23T05:01:52;7.80;99.90
18446;DHT22;9352;50.888;4.466;2024-03-23T05:04:19;7.70;99.90
18446;DHT22;9352;50.888;4.466;2024-03-23T05:06:45;7.60;99.90
18446;DHT22;9352;50.888;4.466;2024-03-23T05:09:12;7.60;99.90
18446;DHT22;9352;50.888;4.466;2024-03-23T05:11:38;7.50;99.90
18446;DHT22;9352;50.888;4.466;2024-03-23T05:14:05;7.40;99.90
18446;DHT22;9352;50.888;4.466;2024-03-23T05:16:32;7.40;99.90
18446;DHT22;9352;50.888;4.466;2024-03-23T05:18:59;7.40;99.90
18446;DHT22;9352;50.888;4.466;2024-03-23T05:21:25;7.40;99.90
18446;DHT22;9352;50.888;4.466;2024-03-23T05:23:53;7.30;99.90
18446;DHT22;9352;50.888;4.466;2024-03-23T05:26:19;7.30;99.90
18446;DHT22;9352;50.888;4.466;2024-03-23T05:28:46;7.30;99.90
18446;DHT22;9352;50.888;4.466;2024-03-23T05:31:12;7.30;99.90
18446;DHT22;9352;50.888;4.466;2024-03-23T05:33:40;7.30;99.90
18446;DHT22;9352;50.888;4.466;2024-03-23T05:36:07;7.30;99.90
18446;DHT22;9352;50.888;4.466;2024-03-23T05:38:37;7.30;99.90
18446;DHT22;9352;50.888;4.466;2024-03-23T05:41:03;7.30;99.90
18446;DHT22;9352;50.888;4.466;2024-03-23T05:43:30;7.30;99.90
18446;DHT22;9352;50.888;4.466;2024-03-23T05:45:56;7.30;99.90
18446;DHT22;9352;50.888;4.466;2024-03-23T05:48:24;7.40;99.90
18446;DHT22;9352;50.888;4.466;2024-03-23T05:50:52;7.40;99.90
18446;DHT22;9352;50.888;4.466;2024-03-23T05:53:19;7.40;99.90
18446;DHT22;9352;50.888;4.466;2024-03-23T05:55:46;7.40;99.90
18446;DHT22;9352;50.888;4.466;2024-03-23T05:58:15;7.50;99.90
18446;DHT22;9352;50.888;4.466;2024-03-23T06:00:41;7.50;99.90
18446;DHT22;9352;50.888;4.466;2024-03-23T06:03:08;7.50;99.90
18446;DHT22;9352;50.888;4.466;2024-03-23T06:05:34;7.60;99.90
18446;DHT22;9352;50.888;4.466;2024-03-23T06:08:03;7.70;99.90
18446;DHT22;9352;50.888;4.466;2024-03-23T06:10:29;7.70;99.90
18446;DHT22;9352;50.888;4.466;2024-03-23T06:12:57;7.70;99.90
18446;DHT22;9352;50.888;4.466;2024-03-23T06:15:24;7.70;99.90
18446;DHT22;9352;50.888;4.466;2024-03-23T06:17:51;7.80;99.90
18446;DHT22;9352;50.888;4.466;2024-03-23T06:20:17;7.80;99.90
18446;DHT22;9352;50.888;4.466;2024-03-23T06:22:44;7.80;99.90
18446;DHT22;9352;50.888;4.466;2024-03-23T06:25:11;7.80;99.90
18446;DHT22;9352;50.888;4.466;2024-03-23T06:27:38;7.80;99.90
18446;DHT22;9352;50.888;4.466;2024-03-23T06:30:05;7.80;99.90
18446;DHT22;9352;50.888;4.466;2024-03-23T06:32:32;7.80;99.90
18446;DHT22;9352;50.888;4.466;2024-03-23T06:34:59;7.90;99.90
18446;DHT22;9352;50.888;4.466;2024-03-23T06:37:26;7.90;99.90
18446;DHT22;9352;50.888;4.466;2024-03-23T06:39:54;8.00;99.90
18446;DHT22;9352;50.888;4.466;2024-03-23T06:42:21;8.00;99.90
18446;DHT22;9352;50.888;4.466;2024-03-23T06:44:48;8.00;99.90
18446;DHT22;9352;50.888;4.466;2024-03-23T06:47:14;8.00;99.90
18446;DHT22;9352;50.888;4.466;2024-03-23T06:49:41;8.00;99.90
18446;DHT22;9352;50.888;4.466;2024-03-23T06:52:06;8.00;99.90
18446;DHT22;9352;50.888;4.466;2024-03-23T06:54:33;8.00;99.90
18446;DHT22;9352;50.888;4.466;2024-03-23T06:56:59;8.10;99.90
18446;DHT22;9352;50.888;4.466;2024-03-23T06:59:28;8.10;99.90
18446;DHT22;9352;50.888;4.466;2024-03-23T07:01:53;8.20;99.90
18446;DHT22;9352;50.888;4.466;2024-03-23T07:04:20;8.40;99.90
18446;DHT22;9352;50.888;4.466;2024-03-23T07:06:46;8.50;99.90
18446;DHT22;9352;50.888;4.466;2024-03-23T07:09:13;8.40;99.90
18446;DHT22;9352;50.888;4.466;2024-03-23T07:11:39;8.30;99.90
18446;DHT22;9352;50.888;4.466;2024-03-23T07:14:06;8.30;99.90
18446;DHT22;9352;50.888;4.466;2024-03-23T07:16:34;8.20;99.90
18446;DHT22;9352;50.888;4.466;2024-03-23T07:19:01;8.20;99.90
18446;DHT22;9352;50.888;4.466;2024-03-23T07:21:27;8.00;99.90
18446;DHT22;9352;50.888;4.466;2024-03-23T07:23:53;7.80;99.90
18446;DHT22;9352;50.888;4.466;2024-03-23T07:26:19;7.70;99.90
18446;DHT22;9352;50.888;4.466;2024-03-23T07:28:46;7.70;99.90
18446;DHT22;9352;50.888;4.466;2024-03-23T07:31:13;7.60;99.90
18446;DHT22;9352;50.888;4.466;2024-03-23T07:33:46;7.60;99.90
18446;DHT22;9352;50.888;4.466;2024-03-23T07:36:12;7.60;99.90
18446;DHT22;9352;50.888;4.466;2024-03-23T07:38:40;7.50;99.90
18446;DHT22;9352;50.888;4.466;2024-03-23T07:41:07;7.50;99.90
18446;DHT22;9352;50.888;4.466;2024-03-23T07:43:34;7.60;99.90
18446;DHT22;9352;50.888;4.466;2024-03-23T07:46:00;7.70;99.90
18446;DHT22;9352;50.888;4.466;2024-03-23T07:48:29;7.90;99.90
18446;DHT22;9352;50.888;4.466;2024-03-23T07:51:01;8.00;99.90
18446;DHT22;9352;50.888;4.466;2024-03-23T07:53:28;8.00;99.90
18446;DHT22;9352;50.888;4.466;2024-03-23T07:55:55;8.20;99.90
18446;DHT22;9352;50.888;4.466;2024-03-23T07:58:22;8.30;99.90
18446;DHT22;9352;50.888;4.466;2024-03-23T08:00:48;8.30;99.90
18446;DHT22;9352;50.888;4.466;2024-03-23T08:03:15;8.30;99.90
18446;DHT22;9352;50.888;4.466;2024-03-23T08:05:41;8.30;99.90
18446;DHT22;9352;50.888;4.466;2024-03-23T08:08:10;8.40;99.90
18446;DHT22;9352;50.888;4.466;2024-03-23T08:10:36;8.50;99.90
18446;DHT22;9352;50.888;4.466;2024-03-23T08:13:03;8.50;99.90
18446;DHT22;9352;50.888;4.466;2024-03-23T08:15:30;8.60;99.90
18446;DHT22;9352;50.888;4.466;2024-03-23T08:18:00;8.70;99.90
18446;DHT22;9352;50.888;4.466;2024-03-23T08:20:26;8.80;99.90
18446;DHT22;9352;50.888;4.466;2024-03-23T08:22:53;8.80;99.90
18446;DHT22;9352;50.888;4.466;2024-03-23T08:25:20;9.00;99.90
18446;DHT22;9352;50.888;4.466;2024-03-23T08:27:47;9.00;99.90
18446;DHT22;9352;50.888;4.466;2024-03-23T08:30:13;9.00;99.90
18446;DHT22;9352;50.888;4.466;2024-03-23T08:32:41;9.20;99.90
18446;DHT22;9352;50.888;4.466;2024-03-23T08:35:08;9.40;99.90
18446;DHT22;9352;50.888;4.466;2024-03-23T08:37:35;9.60;99.90
18446;DHT22;9352;50.888;4.466;2024-03-23T08:40:01;9.70;99.90
18446;DHT22;9352;50.888;4.466;2024-03-23T08:42:31;9.60;99.90
18446;DHT22;9352;50.888;4.466;2024-03-23T08:44:57;9.40;99.90
18446;DHT22;9352;50.888;4.466;2024-03-23T08:47:24;9.20;99.90
18446;DHT22;9352;50.888;4.466;2024-03-23T08:49:50;9.20;99.90
18446;DHT22;9352;50.888;4.466;2024-03-23T08:52:17;9.30;99.90
18446;DHT22;9352;50.888;4.466;2024-03-23T08:54:43;9.20;99.90
18446;DHT22;9352;50.888;4.466;2024-03-23T08:57:10;9.10;99.90
18446;DHT22;9352;50.888;4.466;2024-03-23T08:59:39;9.10;99.90
18446;DHT22;9352;50.888;4.466;2024-03-23T09:02:05;9.10;99.90
18446;DHT22;9352;50.888;4.466;2024-03-23T09:04:31;9.40;99.90
18446;DHT22;9352;50.888;4.466;2024-03-23T09:06:59;9.80;99.90
18446;DHT22;9352;50.888;4.466;2024-03-23T09:09:26;9.70;99.90
18446;DHT22;9352;50.888;4.466;2024-03-23T09:11:53;9.90;99.90
18446;DHT22;9352;50.888;4.466;2024-03-23T09:14:18;10.00;99.90
18446;DHT22;9352;50.888;4.466;2024-03-23T09:16:50;10.50;99.90
18446;DHT22;9352;50.888;4.466;2024-03-23T09:19:17;10.70;99.90
18446;DHT22;9352;50.888;4.466;2024-03-23T09:21:44;10.60;99.90
18446;DHT22;9352;50.888;4.466;2024-03-23T09:24:09;10.60;99.90
18446;DHT22;9352;50.888;4.466;2024-03-23T09:26:36;10.40;99.90
18446;DHT22;9352;50.888;4.466;2024-03-23T09:29:02;10.50;99.90
18446;DHT22;9352;50.888;4.466;2024-03-23T09:31:29;10.30;99.90
18446;DHT22;9352;50.888;4.466;2024-03-23T09:33:58;10.00;99.90
18446;DHT22;9352;50.888;4.466;2024-03-23T09:36:25;10.00;99.90
18446;DHT22;9352;50.888;4.466;2024-03-23T09:38:51;10.00;99.90
18446;DHT22;9352;50.888;4.466;2024-03-23T09:41:18;10.40;99.90
18446;DHT22;9352;50.888;4.466;2024-03-23T09:43:44;11.20;99.90
18446;DHT22;9352;50.888;4.466;2024-03-23T09:46:14;11.30;99.90
18446;DHT22;9352;50.888;4.466;2024-03-23T09:48:40;11.30;99.90
18446;DHT22;9352;50.888;4.466;2024-03-23T09:51:08;10.90;99.90
18446;DHT22;9352;50.888;4.466;2024-03-23T09:53:34;11.20;99.90
18446;DHT22;9352;50.888;4.466;2024-03-23T09:56:01;11.60;99.90
18446;DHT22;9352;50.888;4.466;2024-03-23T09:58:28;12.30;99.90
18446;DHT22;9352;50.888;4.466;2024-03-23T10:00:55;13.00;99.90
18446;DHT22;9352;50.888;4.466;2024-03-23T10:03:21;13.50;99.90
18446;DHT22;9352;50.888;4.466;2024-03-23T10:06:00;14.10;99.90
18446;DHT22;9352;50.888;4.466;2024-03-23T10:08:29;14.90;99.90
18446;DHT22;9352;50.888;4.466;2024-03-23T10:10:56;15.40;99.90
18446;DHT22;9352;50.888;4.466;2024-03-23T10:13:26;15.50;99.90
18446;DHT22;9352;50.888;4.466;2024-03-23T10:15:57;15.70;99.90
18446;DHT22;9352;50.888;4.466;2024-03-23T10:18:24;15.30;99.90
18446;DHT22;9352;50.888;4.466;2024-03-23T10:21:06;14.50;99.90
18446;DHT22;9352;50.888;4.466;2024-03-23T10:23:36;14.30;99.90
18446;DHT22;9352;50.888;4.466;2024-03-23T10:26:19;14.50;99.90
18446;DHT22;9352;50.888;4.466;2024-03-23T10:28:56;13.90;99.90
18446;DHT22;9352;50.888;4.466;2024-03-23T10:31:26;13.20;99.90
18446;DHT22;9352;50.888;4.466;2024-03-23T10:33:52;12.80;99.90
18446;DHT22;9352;50.888;4.466;2024-03-23T10:36:21;12.70;99.90
18446;DHT22;9352;50.888;4.466;2024-03-23T10:38:50;12.50;99.90
18446;DHT22;9352;50.888;4.466;2024-03-23T10:41:17;12.70;99.90
18446;DHT22;9352;50.888;4.466;2024-03-23T10:43:45;13.00;99.90
18446;DHT22;9352;50.888;4.466;2024-03-23T10:46:12;13.20;99.90
18446;DHT22;9352;50.888;4.466;2024-03-23T10:48:39;13.00;99.90
18446;DHT22;9352;50.888;4.466;2024-03-23T10:51:07;13.40;99.90
18446;DHT22;9352;50.888;4.466;2024-03-23T10:53:34;13.50;99.90
18446;DHT22;9352;50.888;4.466;2024-03-23T10:56:04;14.30;99.90
18446;DHT22;9352;50.888;4.466;2024-03-23T10:58:32;13.40;99.90
18446;DHT22;9352;50.888;4.466;2024-03-23T11:01:02;13.60;99.90
18446;DHT22;9352;50.888;4.466;2024-03-23T11:03:32;13.60;99.90
18446;DHT22;9352;50.888;4.466;2024-03-23T11:06:00;13.00;99.90
18446;DHT22;9352;50.888;4.466;2024-03-23T11:08:33;12.60;99.90
18446;DHT22;9352;50.888;4.466;2024-03-23T11:11:21;12.40;99.90
18446;DHT22;9352;50.888;4.466;2024-03-23T11:13:48;12.50;99.90
18446;DHT22;9352;50.888;4.466;2024-03-23T11:16:17;12.40;99.90
18446;DHT22;9352;50.888;4.466;2024-03-23T11:18:43;11.90;99.90
18446;DHT22;9352;50.888;4.466;2024-03-23T11:21:11;12.30;99.90
18446;DHT22;9352;50.888;4.466;2024-03-23T11:24:13;13.50;99.90
18446;DHT22;9352;50.888;4.466;2024-03-23T11:26:41;14.00;99.90
18446;DHT22;9352;50.888;4.466;2024-03-23T11:29:10;15.10;99.90
18446;DHT22;9352;50.888;4.466;2024-03-23T11:31:37;15.40;99.90
18446;DHT22;9352;50.888;4.466;2024-03-23T11:34:04;15.80;99.90
18446;DHT22;9352;50.888;4.466;2024-03-23T11:36:31;15.70;99.90
18446;DHT22;9352;50.888;4.466;2024-03-23T11:38:57;14.80;99.90
18446;DHT22;9352;50.888;4.466;2024-03-23T11:41:24;14.70;99.90
18446;DHT22;9352;50.888;4.466;2024-03-23T11:43:52;15.10;99.90
18446;DHT22;9352;50.888;4.466;2024-03-23T11:46:22;14.70;99.90
18446;DHT22;9352;50.888;4.466;2024-03-23T11:48:50;14.10;99.90
18446;DHT22;9352;50.888;4.466;2024-03-23T11:51:17;14.20;99.90
18446;DHT22;9352;50.888;4.466;2024-03-23T11:53:43;15.10;99.90
18446;DHT22;9352;50.888;4.466;2024-03-23T11:56:10;16.10;99.90
18446;DHT22;9352;50.888;4.466;2024-03-23T11:58:36;16.50;99.90
18446;DHT22;9352;50.888;4.466;2024-03-23T12:01:04;16.60;99.90
18446;DHT22;9352;50.888;4.466;2024-03-23T12:03:35;17.10;99.90
18446;DHT22;9352;50.888;4.466;2024-03-23T12:06:04;17.50;99.90
18446;DHT22;9352;50.888;4.466;2024-03-23T12:08:31;17.80;99.90
18446;DHT22;9352;50.888;4.466;2024-03-23T12:11:06;17.70;99.90
18446;DHT22;9352;50.888;4.466;2024-03-23T12:13:32;18.50;99.90
18446;DHT22;9352;50.888;4.466;2024-03-23T12:16:11;18.30;99.90
18446;DHT22;9352;50.888;4.466;2024-03-23T12:18:38;18.00;99.90
18446;DHT22;9352;50.888;4.466;2024-03-23T12:21:05;17.80;99.90
18446;DHT22;9352;50.888;4.466;2024-03-23T12:23:31;17.30;99.90
18446;DHT22;9352;50.888;4.466;2024-03-23T12:25:59;17.70;99.90
18446;DHT22;9352;50.888;4.466;2024-03-23T12:28:25;16.00;99.90
18446;DHT22;9352;50.888;4.466;2024-03-23T12:30:52;15.30;99.90
18446;DHT22;9352;50.888;4.466;2024-03-23T12:33:21;13.90;99.90
18446;DHT22;9352;50.888;4.466;2024-03-23T12:35:48;13.70;99.90
18446;DHT22;9352;50.888;4.466;2024-03-23T12:38:14;13.80;99.90
18446;DHT22;9352;50.888;4.466;2024-03-23T12:40:41;14.50;99.90
18446;DHT22;9352;50.888;4.466;2024-03-23T12:43:07;15.30;99.90
18446;DHT22;9352;50.888;4.466;2024-03-23T12:45:34;16.10;99.90
18446;DHT22;9352;50.888;4.466;2024-03-23T12:48:00;17.00;99.90
18446;DHT22;9352;50.888;4.466;2024-03-23T12:50:28;17.80;99.90
18446;DHT22;9352;50.888;4.466;2024-03-23T12:52:54;18.40;99.90
18446;DHT22;9352;50.888;4.466;2024-03-23T12:55:21;19.20;99.90
18446;DHT22;9352;50.888;4.466;2024-03-23T12:57:47;19.80;99.90
18446;DHT22;9352;50.888;4.466;2024-03-23T13:00:14;19.10;99.90
18446;DHT22;9352;50.888;4.466;2024-03-23T13:02:42;17.10;99.90
18446;DHT22;9352;50.888;4.466;2024-03-23T13:05:09;16.50;99.90
18446;DHT22;9352;50.888;4.466;2024-03-23T13:07:36;14.90;99.90
18446;DHT22;9352;50.888;4.466;2024-03-23T13:10:04;14.70;99.90
18446;DHT22;9352;50.888;4.466;2024-03-23T13:12:30;14.50;99.90
18446;DHT22;9352;50.888;4.466;2024-03-23T13:14:58;14.20;99.90
18446;DHT22;9352;50.888;4.466;2024-03-23T13:17:24;13.60;99.90
18446;DHT22;9352;50.888;4.466;2024-03-23T13:19:52;13.30;99.90
18446;DHT22;9352;50.888;4.466;2024-03-23T13:22:18;13.10;99.90
18446;DHT22;9352;50.888;4.466;2024-03-23T13:24:46;12.60;99.90
18446;DHT22;9352;50.888;4.466;2024-03-23T13:27:12;12.40;99.90
18446;DHT22;9352;50.888;4.466;2024-03-23T13:29:39;12.30;99.90
18446;DHT22;9352;50.888;4.466;2024-03-23T13:32:06;12.10;99.90
18446;DHT22;9352;50.888;4.466;2024-03-23T13:34:33;11.90;99.90
18446;DHT22;9352;50.888;4.466;2024-03-23T13:37:00;11.00;99.90
18446;DHT22;9352;50.888;4.466;2024-03-23T13:39:28;11.00;99.90
18446;DHT22;9352;50.888;4.466;2024-03-23T13:41:56;11.20;99.90
18446;DHT22;9352;50.888;4.466;2024-03-23T13:44:23;11.20;99.90
18446;DHT22;9352;50.888;4.466;2024-03-23T13:46:49;11.20;99.90
18446;DHT22;9352;50.888;4.466;2024-03-23T13:49:25;11.00;99.90
18446;DHT22;9352;50.888;4.466;2024-03-23T13:51:52;11.10;99.90
18446;DHT22;9352;50.888;4.466;2024-03-23T13:54:19;11.20;99.90
18446;DHT22;9352;50.888;4.466;2024-03-23T13:56:48;11.60;99.90
18446;DHT22;9352;50.888;4.466;2024-03-23T13:59:17;11.90;99.90
18446;DHT22;9352;50.888;4.466;2024-03-23T14:01:42;11.90;99.90
18446;DHT22;9352;50.888;4.466;2024-03-23T14:04:10;11.60;99.90
18446;DHT22;9352;50.888;4.466;2024-03-23T14:06:36;11.40;99.90
18446;DHT22;9352;50.888;4.466;2024-03-23T14:09:03;11.00;99.90
18446;DHT22;9352;50.888;4.466;2024-03-23T14:11:30;10.80;99.90
18446;DHT22;9352;50.888;4.466;2024-03-23T14:13:57;10.50;99.90
18446;DHT22;9352;50.888;4.466;2024-03-23T14:16:24;10.30;99.90
18446;DHT22;9352;50.888;4.466;2024-03-23T14:18:51;10.20;99.90
18446;DHT22;9352;50.888;4.466;2024-03-23T14:21:17;10.10;99.90
18446;DHT22;9352;50.888;4.466;2024-03-23T14:23:44;10.20;99.90
18446;DHT22;9352;50.888;4.466;2024-03-23T14:26:10;11.00;99.90
18446;DHT22;9352;50.888;4.466;2024-03-23T14:28:37;13.10;99.90
18446;DHT22;9352;50.888;4.466;2024-03-23T14:31:03;15.00;99.90
18446;DHT22;9352;50.888;4.466;2024-03-23T14:33:37;16.50;99.90
18446;DHT22;9352;50.888;4.466;2024-03-23T14:36:04;18.10;99.90
18446;DHT22;9352;50.888;4.466;2024-03-23T14:38:31;19.90;99.90
18446;DHT22;9352;50.888;4.466;2024-03-23T14:40:58;21.40;99.90
18446;DHT22;9352;50.888;4.466;2024-03-23T14:43:25;22.60;99.90
18446;DHT22;9352;50.888;4.466;2024-03-23T14:46:08;22.20;99.90
18446;DHT22;9352;50.888;4.466;2024-03-23T14:48:36;21.70;99.90
18446;DHT22;9352;50.888;4.466;2024-03-23T14:51:03;19.30;99.90
18446;DHT22;9352;50.888;4.466;2024-03-23T14:53:31;17.60;99.90
18446;DHT22;9352;50.888;4.466;2024-03-23T14:55:57;16.60;99.90
18446;DHT22;9352;50.888;4.466;2024-03-23T14:58:25;17.10;99.90
18446;DHT22;9352;50.888;4.466;2024-03-23T15:00:51;16.50;99.90
18446;DHT22;9352;50.888;4.466;2024-03-23T15:03:18;15.50;99.90
18446;DHT22;9352;50.888;4.466;2024-03-23T15:05:53;15.30;99.90
18446;DHT22;9352;50.888;4.466;2024-03-23T15:08:20;17.80;99.90
18446;DHT22;9352;50.888;4.466;2024-03-23T15:10:46;18.90;99.90
18446;DHT22;9352;50.888;4.466;2024-03-23T15:13:13;16.80;99.90
18446;DHT22;9352;50.888;4.466;2024-03-23T15:15:40;15.40;99.90
18446;DHT22;9352;50.888;4.466;2024-03-23T15:18:09;14.20;99.90
18446;DHT22;9352;50.888;4.466;2024-03-23T15:20:35;13.30;99.90
18446;DHT22;9352;50.888;4.466;2024-03-23T15:23:03;12.80;99.90
18446;DHT22;9352;50.888;4.466;2024-03-23T15:25:30;12.50;99.90
18446;DHT22;9352;50.888;4.466;2024-03-23T15:27:58;12.20;99.90
18446;DHT22;9352;50.888;4.466;2024-03-23T15:30:25;12.20;99.90
18446;DHT22;9352;50.888;4.466;2024-03-23T15:32:52;12.30;99.90
18446;DHT22;9352;50.888;4.466;2024-03-23T15:35:18;14.20;99.90
18446;DHT22;9352;50.888;4.466;2024-03-23T15:37:48;13.60;99.90
18446;DHT22;9352;50.888;4.466;2024-03-23T15:40:15;13.00;99.90
18446;DHT22;9352;50.888;4.466;2024-03-23T15:42:42;12.50;99.90
18446;DHT22;9352;50.888;4.466;2024-03-23T15:45:09;12.10;99.90
18446;DHT22;9352;50.888;4.466;2024-03-23T15:47:37;11.70;99.90
18446;DHT22;9352;50.888;4.466;2024-03-23T15:50:03;11.50;99.90
18446;DHT22;9352;50.888;4.466;2024-03-23T15:52:34;11.50;99.90
18446;DHT22;9352;50.888;4.466;2024-03-23T15:55:00;11.20;99.90
18446;DHT22;9352;50.888;4.466;2024-03-23T15:57:33;11.20;99.90
18446;DHT22;9352;50.888;4.466;2024-03-23T15:59:58;11.00;99.90
18446;DHT22;9352;50.888;4.466;2024-03-23T16:02:25;10.90;99.90
18446;DHT22;9352;50.888;4.466;2024-03-23T16:04:53;10.80;99.90
18446;DHT22;9352;50.888;4.466;2024-03-23T16:07:20;10.90;99.90
18446;DHT22;9352;50.888;4.466;2024-03-23T16:09:46;10.90;99.90
18446;DHT22;9352;50.888;4.466;2024-03-23T16:12:13;10.80;99.90
18446;DHT22;9352;50.888;4.466;2024-03-23T16:14:40;10.80;99.90
18446;DHT22;9352;50.888;4.466;2024-03-23T16:17:07;10.80;99.90
18446;DHT22;9352;50.888;4.466;2024-03-23T16:19:33;10.80;99.90
18446;DHT22;9352;50.888;4.466;2024-03-23T16:21:59;10.70;99.90
18446;DHT22;9352;50.888;4.466;2024-03-23T16:24:25;10.70;99.90
18446;DHT22;9352;50.888;4.466;2024-03-23T16:26:52;10.80;99.90
18446;DHT22;9352;50.888;4.466;2024-03-23T16:29:18;10.90;99.90
18446;DHT22;9352;50.888;4.466;2024-03-23T16:31:46;11.00;99.90
18446;DHT22;9352;50.888;4.466;2024-03-23T16:34:12;11.10;99.90
18446;DHT22;9352;50.888;4.466;2024-03-23T16:36:39;11.10;99.90
18446;DHT22;9352;50.888;4.466;2024-03-23T16:39:05;11.10;99.90
18446;DHT22;9352;50.888;4.466;2024-03-23T16:41:34;11.20;99.90
18446;DHT22;9352;50.888;4.466;2024-03-23T16:44:00;11.10;99.90
18446;DHT22;9352;50.888;4.466;2024-03-23T16:46:27;10.90;99.90
18446;DHT22;9352;50.888;4.466;2024-03-23T16:48:54;10.90;99.90